createdAt,value
2018-05-12T00:04:18.826Z,19.1
2018-05-12T00:14:18.112Z,19.1
2018-05-12T00:24:17.333Z,19
2018-05-12T00:34:16.476Z,18.9
2018-05-12T00:44:15.751Z,18.9
2018-05-12T00:54:15.256Z,18.9
2018-05-12T01:04:14.248Z,18.9
2018-05-12T01:14:13.347Z,18.8
2018-05-12T01:24:12.565Z,18.8
2018-05-12T01:34:11.834Z,18.8
2018-05-12T01:44:11.325Z,18.8
2018-05-12T01:54:10.272Z,18.8
2018-05-12T02:04:09.637Z,18.6
2018-05-12T02:14:08.965Z,18.6
2018-05-12T02:24:07.920Z,18.5
2018-05-12T02:34:07.091Z,18.5
2018-05-12T02:44:06.592Z,18.5
2018-05-12T02:54:05.518Z,18.6
2018-05-12T03:04:04.862Z,18.6
2018-05-12T03:14:04.049Z,18.5
2018-05-12T03:24:03.451Z,18.4
2018-05-12T03:34:02.716Z,18.4
2018-05-12T03:44:01.658Z,18.4
2018-05-12T03:54:01.028Z,18.4
2018-05-12T04:03:59.999Z,18.4
2018-05-12T04:13:59.291Z,18.5
2018-05-12T04:23:58.490Z,18.6
2018-05-12T04:33:57.924Z,18.9
2018-05-12T04:43:56.880Z,19.2
2018-05-12T04:53:56.110Z,19.4
2018-05-12T05:03:55.358Z,19.8
2018-05-12T05:13:54.591Z,20.1
2018-05-12T05:23:53.795Z,20.3
2018-05-12T05:33:52.987Z,20.3
2018-05-12T05:43:52.151Z,20.4
2018-05-12T05:53:51.433Z,20.4
2018-05-12T06:03:50.635Z,20.4
2018-05-12T06:13:49.942Z,20.6
2018-05-12T06:23:49.022Z,20.8
2018-05-12T06:33:48.294Z,20.9
2018-05-12T06:43:47.569Z,21.1
2018-05-12T06:53:46.729Z,21.4
2018-05-12T07:03:45.915Z,21.6
2018-05-12T07:13:45.111Z,21.9
2018-05-12T07:23:44.326Z,22.3
2018-05-12T07:33:43.534Z,22.7
2018-05-12T07:43:42.749Z,23
2018-05-12T07:53:42.037Z,23.3
2018-05-12T08:03:41.535Z,23.6
2018-05-12T08:13:40.448Z,23.7
2018-05-12T08:23:39.648Z,23.8
2018-05-12T08:33:38.849Z,23.9
2018-05-12T08:43:38.154Z,23.9
2018-05-12T08:53:37.291Z,23.9
2018-05-12T09:03:36.479Z,23.9
